sensor_id;sensor_type;location;lat;lon;timestamp;temperature;humidity
26641;DHT22;14269;47.358;0.724;2023-05-10T00:01:15;13.0;71.0
26641;DHT22;14269;47.358;0.724;2023-05-10T00:03:47;14.0;71.0
26641;DHT22;14269;47.358;0.724;2023-05-10T00:06:19;13.0;71.0
26641;DHT22;14269;47.358;0.724;2023-05-10T00:08:50;13.0;71.0
26641;DHT22;14269;47.358;0.724;2023-05-10T00:11:22;13.0;72.0
26641;DHT22;14269;47.358;0.724;2023-05-10T00:13:54;13.0;71.0
26641;DHT22;14269;47.358;0.724;2023-05-10T00:16:25;13.0;71.0
26641;DHT22;14269;47.358;0.724;2023-05-10T00:18:57;13.0;71.0
26641;DHT22;14269;47.358;0.724;2023-05-10T00:21:28;13.0;71.0
26641;DHT22;14269;47.358;0.724;2023-05-10T00:24:00;13.0;71.0
26641;DHT22;14269;47.358;0.724;2023-05-10T00:26:32;13.0;71.0
26641;DHT22;14269;47.358;0.724;2023-05-10T00:29:03;13.0;71.0
26641;DHT22;14269;47.358;0.724;2023-05-10T00:31:35;13.0;71.0
26641;DHT22;14269;47.358;0.724;2023-05-10T00:34:07;13.0;71.0
26641;DHT22;14269;47.358;0.724;2023-05-10T00:36:38;13.0;71.0
26641;DHT22;14269;47.358;0.724;2023-05-10T00:39:10;13.0;71.0
26641;DHT22;14269;47.358;0.724;2023-05-10T00:41:41;13.0;71.0
26641;DHT22;14269;47.358;0.724;2023-05-10T00:44:13;13.0;71.0
26641;DHT22;14269;47.358;0.724;2023-05-10T00:46:45;13.0;71.0
26641;DHT22;14269;47.358;0.724;2023-05-10T00:49:17;13.0;71.0
26641;DHT22;14269;47.358;0.724;2023-05-10T00:51:48;13.0;72.0
26641;DHT22;14269;47.358;0.724;2023-05-10T00:54:20;13.0;71.0
26641;DHT22;14269;47.358;0.724;2023-05-10T00:56:51;13.0;72.0
26641;DHT22;14269;47.358;0.724;2023-05-10T00:59:23;13.0;72.0
26641;DHT22;14269;47.358;0.724;2023-05-10T01:01:55;13.0;72.0
26641;DHT22;14269;47.358;0.724;2023-05-10T01:04:27;13.0;72.0
26641;DHT22;14269;47.358;0.724;2023-05-10T01:07:08;13.0;72.0
26641;DHT22;14269;47.358;0.724;2023-05-10T01:09:40;13.0;71.0
26641;DHT22;14269;47.358;0.724;2023-05-10T01:12:11;13.0;71.0
26641;DHT22;14269;47.358;0.724;2023-05-10T01:14:43;13.0;72.0
26641;DHT22;14269;47.358;0.724;2023-05-10T01:17:16;13.0;72.0
26641;DHT22;14269;47.358;0.724;2023-05-10T01:19:56;13.0;72.0
26641;DHT22;14269;47.358;0.724;2023-05-10T01:25:22;13.0;72.0
26641;DHT22;14269;47.358;0.724;2023-05-10T01:28:16;13.0;72.0
26641;DHT22;14269;47.358;0.724;2023-05-10T01:31:06;13.0;72.0
26641;DHT22;14269;47.358;0.724;2023-05-10T01:33:52;13.0;72.0
26641;DHT22;14269;47.358;0.724;2023-05-10T01:36:31;13.0;72.0
26641;DHT22;14269;47.358;0.724;2023-05-10T01:39:13;13.0;72.0
26641;DHT22;14269;47.358;0.724;2023-05-10T01:41:54;13.0;72.0
26641;DHT22;14269;47.358;0.724;2023-05-10T01:44:37;13.0;72.0
26641;DHT22;14269;47.358;0.724;2023-05-10T01:47:20;13.0;73.0
26641;DHT22;14269;47.358;0.724;2023-05-10T01:49:59;13.0;72.0
26641;DHT22;14269;47.358;0.724;2023-05-10T01:52:41;13.0;73.0
26641;DHT22;14269;47.358;0.724;2023-05-10T01:55:21;13.0;73.0
26641;DHT22;14269;47.358;0.724;2023-05-10T01:58:05;13.0;72.0
26641;DHT22;14269;47.358;0.724;2023-05-10T02:00:44;13.0;72.0
26641;DHT22;14269;47.358;0.724;2023-05-10T02:03:26;13.0;72.0
26641;DHT22;14269;47.358;0.724;2023-05-10T02:06:07;13.0;72.0
26641;DHT22;14269;47.358;0.724;2023-05-10T02:08:49;13.0;71.0
26641;DHT22;14269;47.358;0.724;2023-05-10T02:11:30;13.0;72.0
26641;DHT22;14269;47.358;0.724;2023-05-10T02:14:02;13.0;71.0
26641;DHT22;14269;47.358;0.724;2023-05-10T02:16:35;13.0;72.0
26641;DHT22;14269;47.358;0.724;2023-05-10T02:19:15;13.0;71.0
26641;DHT22;14269;47.358;0.724;2023-05-10T02:21:57;13.0;71.0
26641;DHT22;14269;47.358;0.724;2023-05-10T02:24:40;13.0;71.0
26641;DHT22;14269;47.358;0.724;2023-05-10T02:27:21;13.0;71.0
26641;DHT22;14269;47.358;0.724;2023-05-10T02:29:53;13.0;70.0
26641;DHT22;14269;47.358;0.724;2023-05-10T02:32:25;13.0;71.0
26641;DHT22;14269;47.358;0.724;2023-05-10T02:35:07;13.0;71.0
26641;DHT22;14269;47.358;0.724;2023-05-10T02:37:48;13.0;70.0
26641;DHT22;14269;47.358;0.724;2023-05-10T02:40:19;13.0;70.0
26641;DHT22;14269;47.358;0.724;2023-05-10T02:43:02;13.0;70.0
26641;DHT22;14269;47.358;0.724;2023-05-10T02:45:43;13.0;69.0
26641;DHT22;14269;47.358;0.724;2023-05-10T02:48:24;13.0;69.0
26641;DHT22;14269;47.358;0.724;2023-05-10T02:51:02;13.0;69.0
26641;DHT22;14269;47.358;0.724;2023-05-10T02:53:41;13.0;70.0
26641;DHT22;14269;47.358;0.724;2023-05-10T02:56:24;13.0;69.0
26641;DHT22;14269;47.358;0.724;2023-05-10T02:59:01;13.0;69.0
26641;DHT22;14269;47.358;0.724;2023-05-10T03:01:33;13.0;70.0
26641;DHT22;14269;47.358;0.724;2023-05-10T03:04:04;13.0;69.0
26641;DHT22;14269;47.358;0.724;2023-05-10T03:06:36;13.0;70.0
26641;DHT22;14269;47.358;0.724;2023-05-10T03:09:09;13.0;69.0
26641;DHT22;14269;47.358;0.724;2023-05-10T03:11:56;13.0;69.0
26641;DHT22;14269;47.358;0.724;2023-05-10T03:14:43;13.0;70.0
26641;DHT22;14269;47.358;0.724;2023-05-10T03:17:28;13.0;71.0
26641;DHT22;14269;47.358;0.724;2023-05-10T03:20:09;13.0;71.0
26641;DHT22;14269;47.358;0.724;2023-05-10T03:22:51;12.0;71.0
26641;DHT22;14269;47.358;0.724;2023-05-10T03:25:29;12.0;72.0
26641;DHT22;14269;47.358;0.724;2023-05-10T03:28:11;12.0;71.0
26641;DHT22;14269;47.358;0.724;2023-05-10T03:30:52;12.0;71.0
26641;DHT22;14269;47.358;0.724;2023-05-10T03:33:23;13.0;71.0
26641;DHT22;14269;47.358;0.724;2023-05-10T03:35:55;12.0;71.0
26641;DHT22;14269;47.358;0.724;2023-05-10T03:38:27;12.0;71.0
26641;DHT22;14269;47.358;0.724;2023-05-10T03:40:58;12.0;71.0
26641;DHT22;14269;47.358;0.724;2023-05-10T03:43:30;12.0;72.0
26641;DHT22;14269;47.358;0.724;2023-05-10T03:46:02;12.0;71.0
26641;DHT22;14269;47.358;0.724;2023-05-10T03:48:33;12.0;71.0
26641;DHT22;14269;47.358;0.724;2023-05-10T03:51:05;12.0;72.0
26641;DHT22;14269;47.358;0.724;2023-05-10T03:53:36;12.0;71.0
26641;DHT22;14269;47.358;0.724;2023-05-10T03:56:08;12.0;71.0
26641;DHT22;14269;47.358;0.724;2023-05-10T03:58:40;12.0;72.0
26641;DHT22;14269;47.358;0.724;2023-05-10T04:01:11;12.0;71.0
26641;DHT22;14269;47.358;0.724;2023-05-10T04:03:43;12.0;71.0
26641;DHT22;14269;47.358;0.724;2023-05-10T04:06:15;12.0;72.0
26641;DHT22;14269;47.358;0.724;2023-05-10T04:08:46;12.0;71.0
26641;DHT22;14269;47.358;0.724;2023-05-10T04:11:18;12.0;71.0
26641;DHT22;14269;47.358;0.724;2023-05-10T04:13:50;12.0;71.0
26641;DHT22;14269;47.358;0.724;2023-05-10T04:16:21;12.0;71.0
26641;DHT22;14269;47.358;0.724;2023-05-10T04:18:53;12.0;71.0
26641;DHT22;14269;47.358;0.724;2023-05-10T04:21:25;12.0;71.0
26641;DHT22;14269;47.358;0.724;2023-05-10T04:23:56;12.0;71.0
26641;DHT22;14269;47.358;0.724;2023-05-10T04:26:28;12.0;71.0
26641;DHT22;14269;47.358;0.724;2023-05-10T04:29:00;12.0;71.0
26641;DHT22;14269;47.358;0.724;2023-05-10T04:31:31;12.0;71.0
26641;DHT22;14269;47.358;0.724;2023-05-10T04:34:03;12.0;71.0
26641;DHT22;14269;47.358;0.724;2023-05-10T04:36:36;12.0;71.0
26641;DHT22;14269;47.358;0.724;2023-05-10T04:39:16;12.0;71.0
26641;DHT22;14269;47.358;0.724;2023-05-10T04:41:48;12.0;71.0
26641;DHT22;14269;47.358;0.724;2023-05-10T04:44:20;12.0;72.0
26641;DHT22;14269;47.358;0.724;2023-05-10T04:46:51;12.0;72.0
26641;DHT22;14269;47.358;0.724;2023-05-10T04:49:23;12.0;71.0
26641;DHT22;14269;47.358;0.724;2023-05-10T04:51:55;12.0;71.0
26641;DHT22;14269;47.358;0.724;2023-05-10T04:54:26;12.0;71.0
26641;DHT22;14269;47.358;0.724;2023-05-10T04:56:58;12.0;71.0
26641;DHT22;14269;47.358;0.724;2023-05-10T04:59:29;12.0;71.0
26641;DHT22;14269;47.358;0.724;2023-05-10T05:02:01;12.0;71.0
26641;DHT22;14269;47.358;0.724;2023-05-10T05:04:33;12.0;72.0
26641;DHT22;14269;47.358;0.724;2023-05-10T05:07:04;12.0;72.0
26641;DHT22;14269;47.358;0.724;2023-05-10T05:09:36;12.0;71.0
26641;DHT22;14269;47.358;0.724;2023-05-10T05:12:08;13.0;70.0
26641;DHT22;14269;47.358;0.724;2023-05-10T05:14:49;13.0;70.0
26641;DHT22;14269;47.358;0.724;2023-05-10T05:17:21;13.0;70.0
26641;DHT22;14269;47.358;0.724;2023-05-10T05:19:53;12.0;71.0
26641;DHT22;14269;47.358;0.724;2023-05-10T05:22:27;12.0;71.0
26641;DHT22;14269;47.358;0.724;2023-05-10T05:25:07;12.0;71.0
26641;DHT22;14269;47.358;0.724;2023-05-10T05:27:38;12.0;71.0
26641;DHT22;14269;47.358;0.724;2023-05-10T05:30:10;12.0;71.0
26641;DHT22;14269;47.358;0.724;2023-05-10T05:32:41;13.0;71.0
26641;DHT22;14269;47.358;0.724;2023-05-10T05:35:13;13.0;71.0
26641;DHT22;14269;47.358;0.724;2023-05-10T05:37:44;13.0;70.0
26641;DHT22;14269;47.358;0.724;2023-05-10T05:40:16;13.0;71.0
26641;DHT22;14269;47.358;0.724;2023-05-10T05:42:48;13.0;71.0
26641;DHT22;14269;47.358;0.724;2023-05-10T05:45:20;13.0;70.0
26641;DHT22;14269;47.358;0.724;2023-05-10T05:48:01;13.0;70.0
26641;DHT22;14269;47.358;0.724;2023-05-10T05:50:33;13.0;70.0
26641;DHT22;14269;47.358;0.724;2023-05-10T05:53:04;13.0;70.0
26641;DHT22;14269;47.358;0.724;2023-05-10T05:55:36;13.0;70.0
26641;DHT22;14269;47.358;0.724;2023-05-10T05:58:08;13.0;71.0
26641;DHT22;14269;47.358;0.724;2023-05-10T06:00:39;12.0;71.0
26641;DHT22;14269;47.358;0.724;2023-05-10T06:03:11;13.0;71.0
26641;DHT22;14269;47.358;0.724;2023-05-10T06:05:43;13.0;70.0
26641;DHT22;14269;47.358;0.724;2023-05-10T06:08:14;13.0;70.0
26641;DHT22;14269;47.358;0.724;2023-05-10T06:10:46;13.0;71.0
26641;DHT22;14269;47.358;0.724;2023-05-10T06:13:17;13.0;70.0
26641;DHT22;14269;47.358;0.724;2023-05-10T06:15:49;13.0;70.0
26641;DHT22;14269;47.358;0.724;2023-05-10T06:18:21;13.0;70.0
26641;DHT22;14269;47.358;0.724;2023-05-10T06:20:52;13.0;70.0
26641;DHT22;14269;47.358;0.724;2023-05-10T06:23:25;13.0;70.0
26641;DHT22;14269;47.358;0.724;2023-05-10T06:26:06;13.0;70.0
26641;DHT22;14269;47.358;0.724;2023-05-10T06:28:38;13.0;70.0
26641;DHT22;14269;47.358;0.724;2023-05-10T06:31:11;13.0;70.0
26641;DHT22;14269;47.358;0.724;2023-05-10T06:33:51;13.0;70.0
26641;DHT22;14269;47.358;0.724;2023-05-10T06:36:24;13.0;71.0
26641;DHT22;14269;47.358;0.724;2023-05-10T06:39:05;13.0;70.0
26641;DHT22;14269;47.358;0.724;2023-05-10T06:41:46;13.0;69.0
26641;DHT22;14269;47.358;0.724;2023-05-10T06:44:18;13.0;69.0
26641;DHT22;14269;47.358;0.724;2023-05-10T06:46:49;13.0;69.0
26641;DHT22;14269;47.358;0.724;2023-05-10T06:49:21;13.0;69.0
26641;DHT22;14269;47.358;0.724;2023-05-10T06:51:53;13.0;69.0
26641;DHT22;14269;47.358;0.724;2023-05-10T06:54:24;13.0;68.0
26641;DHT22;14269;47.358;0.724;2023-05-10T06:56:56;13.0;69.0
26641;DHT22;14269;47.358;0.724;2023-05-10T06:59:28;13.0;69.0
26641;DHT22;14269;47.358;0.724;2023-05-10T07:01:59;13.0;70.0
26641;DHT22;14269;47.358;0.724;2023-05-10T07:04:31;13.0;70.0
26641;DHT22;14269;47.358;0.724;2023-05-10T07:07:02;14.0;69.0
26641;DHT22;14269;47.358;0.724;2023-05-10T07:09:34;14.0;68.0
26641;DHT22;14269;47.358;0.724;2023-05-10T07:12:06;14.0;68.0
26641;DHT22;14269;47.358;0.724;2023-05-10T07:14:38;14.0;69.0
26641;DHT22;14269;47.358;0.724;2023-05-10T07:17:09;14.0;68.0
26641;DHT22;14269;47.358;0.724;2023-05-10T07:19:41;14.0;67.0
26641;DHT22;14269;47.358;0.724;2023-05-10T07:22:12;14.0;68.0
26641;DHT22;14269;47.358;0.724;2023-05-10T07:24:44;14.0;67.0
26641;DHT22;14269;47.358;0.724;2023-05-10T07:27:16;14.0;68.0
26641;DHT22;14269;47.358;0.724;2023-05-10T07:29:47;14.0;67.0
26641;DHT22;14269;47.358;0.724;2023-05-10T07:32:19;15.0;67.0
26641;DHT22;14269;47.358;0.724;2023-05-10T07:34:51;15.0;67.0
26641;DHT22;14269;47.358;0.724;2023-05-10T07:37:22;15.0;67.0
26641;DHT22;14269;47.358;0.724;2023-05-10T07:39:54;15.0;67.0
26641;DHT22;14269;47.358;0.724;2023-05-10T07:42:26;15.0;67.0
26641;DHT22;14269;47.358;0.724;2023-05-10T07:44:57;15.0;65.0
26641;DHT22;14269;47.358;0.724;2023-05-10T07:47:29;15.0;65.0
26641;DHT22;14269;47.358;0.724;2023-05-10T07:50:01;16.0;65.0
26641;DHT22;14269;47.358;0.724;2023-05-10T07:52:32;16.0;64.0
26641;DHT22;14269;47.358;0.724;2023-05-10T07:55:05;17.0;61.0
26641;DHT22;14269;47.358;0.724;2023-05-10T07:57:46;17.0;62.0
26641;DHT22;14269;47.358;0.724;2023-05-10T08:00:19;16.0;60.0
26641;DHT22;14269;47.358;0.724;2023-05-10T08:02:59;16.0;60.0
26641;DHT22;14269;47.358;0.724;2023-05-10T08:05:31;16.0;60.0
26641;DHT22;14269;47.358;0.724;2023-05-10T08:08:02;16.0;62.0
26641;DHT22;14269;47.358;0.724;2023-05-10T08:10:34;16.0;61.0
26641;DHT22;14269;47.358;0.724;2023-05-10T08:13:06;16.0;59.0
26641;DHT22;14269;47.358;0.724;2023-05-10T08:15:37;17.0;60.0
26641;DHT22;14269;47.358;0.724;2023-05-10T08:18:09;16.0;60.0
26641;DHT22;14269;47.358;0.724;2023-05-10T08:20:41;16.0;60.0
26641;DHT22;14269;47.358;0.724;2023-05-10T08:23:12;16.0;61.0
26641;DHT22;14269;47.358;0.724;2023-05-10T08:25:44;16.0;61.0
26641;DHT22;14269;47.358;0.724;2023-05-10T08:28:15;16.0;61.0
26641;DHT22;14269;47.358;0.724;2023-05-10T08:30:47;16.0;61.0
26641;DHT22;14269;47.358;0.724;2023-05-10T08:33:19;16.0;62.0
26641;DHT22;14269;47.358;0.724;2023-05-10T08:35:50;16.0;62.0
26641;DHT22;14269;47.358;0.724;2023-05-10T08:38:22;17.0;61.0
26641;DHT22;14269;47.358;0.724;2023-05-10T08:40:56;17.0;60.0
26641;DHT22;14269;47.358;0.724;2023-05-10T08:43:35;17.0;60.0
26641;DHT22;14269;47.358;0.724;2023-05-10T08:46:07;17.0;59.0
26641;DHT22;14269;47.358;0.724;2023-05-10T08:48:50;17.0;58.0
26641;DHT22;14269;47.358;0.724;2023-05-10T08:51:34;17.0;58.0
26641;DHT22;14269;47.358;0.724;2023-05-10T08:54:12;17.0;58.0
26641;DHT22;14269;47.358;0.724;2023-05-10T08:56:44;17.0;59.0
26641;DHT22;14269;47.358;0.724;2023-05-10T08:59:16;17.0;59.0
26641;DHT22;14269;47.358;0.724;2023-05-10T09:01:49;17.0;59.0
26641;DHT22;14269;47.358;0.724;2023-05-10T09:04:29;17.0;60.0
26641;DHT22;14269;47.358;0.724;2023-05-10T09:07:01;17.0;59.0
26641;DHT22;14269;47.358;0.724;2023-05-10T09:09:33;17.0;59.0
26641;DHT22;14269;47.358;0.724;2023-05-10T09:12:04;17.0;58.0
26641;DHT22;14269;47.358;0.724;2023-05-10T09:14:46;17.0;59.0
26641;DHT22;14269;47.358;0.724;2023-05-10T09:17:18;17.0;60.0
26641;DHT22;14269;47.358;0.724;2023-05-10T09:19:49;17.0;60.0
26641;DHT22;14269;47.358;0.724;2023-05-10T09:22:21;16.0;60.0
26641;DHT22;14269;47.358;0.724;2023-05-10T09:25:04;16.0;62.0
26641;DHT22;14269;47.358;0.724;2023-05-10T09:27:46;17.0;60.0
26641;DHT22;14269;47.358;0.724;2023-05-10T09:30:28;18.0;58.0
26641;DHT22;14269;47.358;0.724;2023-05-10T09:33:08;18.0;57.0
26641;DHT22;14269;47.358;0.724;2023-05-10T09:35:40;19.0;57.0
26641;DHT22;14269;47.358;0.724;2023-05-10T09:38:11;19.0;54.0
26641;DHT22;14269;47.358;0.724;2023-05-10T09:40:54;19.0;53.0
26641;DHT22;14269;47.358;0.724;2023-05-10T09:43:37;18.0;55.0
26641;DHT22;14269;47.358;0.724;2023-05-10T09:46:16;19.0;54.0
26641;DHT22;14269;47.358;0.724;2023-05-10T09:48:48;19.0;55.0
26641;DHT22;14269;47.358;0.724;2023-05-10T09:51:20;18.0;55.0
26641;DHT22;14269;47.358;0.724;2023-05-10T09:54:09;18.0;54.0
26641;DHT22;14269;47.358;0.724;2023-05-10T09:56:43;19.0;55.0
26641;DHT22;14269;47.358;0.724;2023-05-10T09:59:15;19.0;54.0
26641;DHT22;14269;47.358;0.724;2023-05-10T10:01:58;18.0;54.0
26641;DHT22;14269;47.358;0.724;2023-05-10T10:04:39;18.0;56.0
26641;DHT22;14269;47.358;0.724;2023-05-10T10:07:10;17.0;56.0
26641;DHT22;14269;47.358;0.724;2023-05-10T10:09:41;17.0;58.0
26641;DHT22;14269;47.358;0.724;2023-05-10T10:12:13;17.0;59.0
26641;DHT22;14269;47.358;0.724;2023-05-10T10:14:46;18.0;58.0
26641;DHT22;14269;47.358;0.724;2023-05-10T10:17:27;19.0;58.0
26641;DHT22;14269;47.358;0.724;2023-05-10T10:19:59;20.0;54.0
26641;DHT22;14269;47.358;0.724;2023-05-10T10:22:30;20.0;52.0
26641;DHT22;14269;47.358;0.724;2023-05-10T10:25:02;20.0;54.0
26641;DHT22;14269;47.358;0.724;2023-05-10T10:27:41;19.0;54.0
26641;DHT22;14269;47.358;0.724;2023-05-10T10:30:25;19.0;55.0
26641;DHT22;14269;47.358;0.724;2023-05-10T10:33:30;19.0;52.0
26641;DHT22;14269;47.358;0.724;2023-05-10T10:36:10;20.0;51.0
26641;DHT22;14269;47.358;0.724;2023-05-10T10:39:00;20.0;52.0
26641;DHT22;14269;47.358;0.724;2023-05-10T10:41:34;20.0;51.0
26641;DHT22;14269;47.358;0.724;2023-05-10T10:44:46;20.0;52.0
26641;DHT22;14269;47.358;0.724;2023-05-10T10:47:30;20.0;51.0
26641;DHT22;14269;47.358;0.724;2023-05-10T10:50:09;20.0;51.0
26641;DHT22;14269;47.358;0.724;2023-05-10T10:52:51;20.0;50.0
26641;DHT22;14269;47.358;0.724;2023-05-10T10:55:32;20.0;51.0
26641;DHT22;14269;47.358;0.724;2023-05-10T10:58:04;19.0;51.0
26641;DHT22;14269;47.358;0.724;2023-05-10T11:00:45;20.0;50.0
26641;DHT22;14269;47.358;0.724;2023-05-10T11:03:18;20.0;50.0
26641;DHT22;14269;47.358;0.724;2023-05-10T11:06:01;20.0;48.0
26641;DHT22;14269;47.358;0.724;2023-05-10T11:08:42;21.0;46.0
26641;DHT22;14269;47.358;0.724;2023-05-10T11:11:22;21.0;48.0
26641;DHT22;14269;47.358;0.724;2023-05-10T11:14:02;21.0;48.0
26641;DHT22;14269;47.358;0.724;2023-05-10T11:16:41;21.0;47.0
26641;DHT22;14269;47.358;0.724;2023-05-10T11:19:17;21.0;49.0
26641;DHT22;14269;47.358;0.724;2023-05-10T11:21:50;20.0;49.0
26641;DHT22;14269;47.358;0.724;2023-05-10T11:24:30;20.0;48.0
26641;DHT22;14269;47.358;0.724;2023-05-10T11:27:02;20.0;50.0
26641;DHT22;14269;47.358;0.724;2023-05-10T11:29:33;21.0;48.0
26641;DHT22;14269;47.358;0.724;2023-05-10T11:32:08;21.0;47.0
26641;DHT22;14269;47.358;0.724;2023-05-10T11:34:47;20.0;48.0
26641;DHT22;14269;47.358;0.724;2023-05-10T11:37:19;20.0;49.0
26641;DHT22;14269;47.358;0.724;2023-05-10T11:39:50;19.0;51.0
26641;DHT22;14269;47.358;0.724;2023-05-10T11:42:22;19.0;50.0
26641;DHT22;14269;47.358;0.724;2023-05-10T11:44:54;18.0;53.0
26641;DHT22;14269;47.358;0.724;2023-05-10T11:47:25;19.0;53.0
26641;DHT22;14269;47.358;0.724;2023-05-10T11:49:57;19.0;54.0
26641;DHT22;14269;47.358;0.724;2023-05-10T11:52:29;19.0;53.0
26641;DHT22;14269;47.358;0.724;2023-05-10T11:55:00;19.0;54.0
26641;DHT22;14269;47.358;0.724;2023-05-10T11:57:32;18.0;54.0
26641;DHT22;14269;47.358;0.724;2023-05-10T12:00:05;18.0;57.0
26641;DHT22;14269;47.358;0.724;2023-05-10T12:02:45;18.0;56.0
26641;DHT22;14269;47.358;0.724;2023-05-10T12:05:17;18.0;56.0
26641;DHT22;14269;47.358;0.724;2023-05-10T12:07:48;19.0;54.0
26641;DHT22;14269;47.358;0.724;2023-05-10T12:10:26;20.0;56.0
26641;DHT22;14269;47.358;0.724;2023-05-10T12:13:03;20.0;55.0
26641;DHT22;14269;47.358;0.724;2023-05-10T12:15:33;19.0;53.0
26641;DHT22;14269;47.358;0.724;2023-05-10T12:18:05;19.0;53.0
26641;DHT22;14269;47.358;0.724;2023-05-10T12:20:37;18.0;56.0
26641;DHT22;14269;47.358;0.724;2023-05-10T12:23:20;18.0;55.0
26641;DHT22;14269;47.358;0.724;2023-05-10T12:26:02;18.0;57.0
26641;DHT22;14269;47.358;0.724;2023-05-10T12:28:42;18.0;57.0
26641;DHT22;14269;47.358;0.724;2023-05-10T12:31:14;18.0;57.0
26641;DHT22;14269;47.358;0.724;2023-05-10T12:33:46;18.0;59.0
26641;DHT22;14269;47.358;0.724;2023-05-10T12:36:27;18.0;60.0
26641;DHT22;14269;47.358;0.724;2023-05-10T12:39:02;18.0;58.0
26641;DHT22;14269;47.358;0.724;2023-05-10T12:41:41;17.0;58.0
26641;DHT22;14269;47.358;0.724;2023-05-10T12:44:12;17.0;60.0
26641;DHT22;14269;47.358;0.724;2023-05-10T12:46:44;18.0;60.0
26641;DHT22;14269;47.358;0.724;2023-05-10T12:49:16;18.0;61.0
26641;DHT22;14269;47.358;0.724;2023-05-10T12:51:57;19.0;61.0
26641;DHT22;14269;47.358;0.724;2023-05-10T12:54:29;20.0;60.0
26641;DHT22;14269;47.358;0.724;2023-05-10T12:57:00;19.0;59.0
26641;DHT22;14269;47.358;0.724;2023-05-10T12:59:32;20.0;59.0
26641;DHT22;14269;47.358;0.724;2023-05-10T13:02:04;20.0;56.0
26641;DHT22;14269;47.358;0.724;2023-05-10T13:04:39;20.0;55.0
26641;DHT22;14269;47.358;0.724;2023-05-10T13:07:17;20.0;54.0
26641;DHT22;14269;47.358;0.724;2023-05-10T13:09:49;20.0;54.0
26641;DHT22;14269;47.358;0.724;2023-05-10T13:12:20;20.0;55.0
26641;DHT22;14269;47.358;0.724;2023-05-10T13:14:52;20.0;54.0
26641;DHT22;14269;47.358;0.724;2023-05-10T13:17:25;19.0;55.0
26641;DHT22;14269;47.358;0.724;2023-05-10T13:20:06;19.0;56.0
26641;DHT22;14269;47.358;0.724;2023-05-10T13:22:37;19.0;57.0
26641;DHT22;14269;47.358;0.724;2023-05-10T13:25:09;19.0;57.0
26641;DHT22;14269;47.358;0.724;2023-05-10T13:27:41;19.0;57.0
26641;DHT22;14269;47.358;0.724;2023-05-10T13:30:12;19.0;57.0
26641;DHT22;14269;47.358;0.724;2023-05-10T13:32:44;19.0;56.0
26641;DHT22;14269;47.358;0.724;2023-05-10T13:35:15;19.0;57.0
26641;DHT22;14269;47.358;0.724;2023-05-10T13:37:47;20.0;54.0
26641;DHT22;14269;47.358;0.724;2023-05-10T13:40:19;20.0;54.0
26641;DHT22;14269;47.358;0.724;2023-05-10T13:42:50;20.0;53.0
26641;DHT22;14269;47.358;0.724;2023-05-10T13:45:22;20.0;53.0
26641;DHT22;14269;47.358;0.724;2023-05-10T13:47:54;20.0;54.0
26641;DHT22;14269;47.358;0.724;2023-05-10T13:50:25;20.0;54.0
26641;DHT22;14269;47.358;0.724;2023-05-10T13:52:57;19.0;54.0
26641;DHT22;14269;47.358;0.724;2023-05-10T13:55:29;19.0;54.0
26641;DHT22;14269;47.358;0.724;2023-05-10T13:58:00;19.0;55.0
26641;DHT22;14269;47.358;0.724;2023-05-10T14:00:32;19.0;58.0
26641;DHT22;14269;47.358;0.724;2023-05-10T14:03:05;19.0;55.0
26641;DHT22;14269;47.358;0.724;2023-05-10T14:05:45;18.0;55.0
26641;DHT22;14269;47.358;0.724;2023-05-10T14:08:27;18.0;57.0
26641;DHT22;14269;47.358;0.724;2023-05-10T14:10:59;17.0;58.0
26641;DHT22;14269;47.358;0.724;2023-05-10T14:13:30;17.0;62.0
26641;DHT22;14269;47.358;0.724;2023-05-10T14:16:02;17.0;64.0
26641;DHT22;14269;47.358;0.724;2023-05-10T14:18:34;16.0;68.0
26641;DHT22;14269;47.358;0.724;2023-05-10T14:21:06;16.0;69.0
26641;DHT22;14269;47.358;0.724;2023-05-10T14:23:37;16.0;69.0
26641;DHT22;14269;47.358;0.724;2023-05-10T14:26:09;16.0;69.0
26641;DHT22;14269;47.358;0.724;2023-05-10T14:28:40;16.0;70.0
26641;DHT22;14269;47.358;0.724;2023-05-10T14:31:12;17.0;70.0
26641;DHT22;14269;47.358;0.724;2023-05-10T14:33:43;18.0;69.0
26641;DHT22;14269;47.358;0.724;2023-05-10T14:36:15;18.0;70.0
26641;DHT22;14269;47.358;0.724;2023-05-10T14:38:47;18.0;68.0
26641;DHT22;14269;47.358;0.724;2023-05-10T14:41:18;18.0;68.0
26641;DHT22;14269;47.358;0.724;2023-05-10T14:43:50;18.0;66.0
26641;DHT22;14269;47.358;0.724;2023-05-10T14:46:22;18.0;64.0
26641;DHT22;14269;47.358;0.724;2023-05-10T14:48:53;19.0;66.0
26641;DHT22;14269;47.358;0.724;2023-05-10T14:51:25;19.0;65.0
26641;DHT22;14269;47.358;0.724;2023-05-10T14:53:57;19.0;64.0
26641;DHT22;14269;47.358;0.724;2023-05-10T14:56:28;19.0;64.0
26641;DHT22;14269;47.358;0.724;2023-05-10T14:59:00;19.0;64.0
26641;DHT22;14269;47.358;0.724;2023-05-10T15:01:32;19.0;64.0
26641;DHT22;14269;47.358;0.724;2023-05-10T15:04:16;20.0;62.0
26641;DHT22;14269;47.358;0.724;2023-05-10T15:06:59;19.0;63.0
26641;DHT22;14269;47.358;0.724;2023-05-10T15:09:37;19.0;61.0
26641;DHT22;14269;47.358;0.724;2023-05-10T15:12:09;19.0;62.0
26641;DHT22;14269;47.358;0.724;2023-05-10T15:14:40;19.0;62.0
26641;DHT22;14269;47.358;0.724;2023-05-10T15:17:12;19.0;63.0
26641;DHT22;14269;47.358;0.724;2023-05-10T15:19:43;18.0;64.0
26641;DHT22;14269;47.358;0.724;2023-05-10T15:22:15;18.0;66.0
26641;DHT22;14269;47.358;0.724;2023-05-10T15:24:47;18.0;67.0
26641;DHT22;14269;47.358;0.724;2023-05-10T15:27:18;17.0;68.0
26641;DHT22;14269;47.358;0.724;2023-05-10T15:29:50;16.0;67.0
26641;DHT22;14269;47.358;0.724;2023-05-10T15:32:22;16.0;69.0
26641;DHT22;14269;47.358;0.724;2023-05-10T15:34:53;16.0;70.0
26641;DHT22;14269;47.358;0.724;2023-05-10T15:37:25;16.0;69.0
26641;DHT22;14269;47.358;0.724;2023-05-10T15:40:03;16.0;70.0
26641;DHT22;14269;47.358;0.724;2023-05-10T15:42:38;17.0;71.0
26641;DHT22;14269;47.358;0.724;2023-05-10T15:45:11;17.0;69.0
26641;DHT22;14269;47.358;0.724;2023-05-10T15:47:42;17.0;69.0
26641;DHT22;14269;47.358;0.724;2023-05-10T15:50:23;17.0;70.0
26641;DHT22;14269;47.358;0.724;2023-05-10T15:52:55;17.0;70.0
26641;DHT22;14269;47.358;0.724;2023-05-10T15:55:27;17.0;71.0
26641;DHT22;14269;47.358;0.724;2023-05-10T15:57:58;18.0;70.0
26641;DHT22;14269;47.358;0.724;2023-05-10T16:00:30;17.0;70.0
26641;DHT22;14269;47.358;0.724;2023-05-10T16:03:02;17.0;69.0
26641;DHT22;14269;47.358;0.724;2023-05-10T16:05:34;17.0;70.0
26641;DHT22;14269;47.358;0.724;2023-05-10T16:08:05;17.0;69.0
26641;DHT22;14269;47.358;0.724;2023-05-10T16:10:37;17.0;70.0
26641;DHT22;14269;47.358;0.724;2023-05-10T16:13:08;17.0;70.0
26641;DHT22;14269;47.358;0.724;2023-05-10T16:15:41;17.0;69.0
26641;DHT22;14269;47.358;0.724;2023-05-10T16:18:22;17.0;70.0
26641;DHT22;14269;47.358;0.724;2023-05-10T16:20:53;17.0;70.0
26641;DHT22;14269;47.358;0.724;2023-05-10T16:23:25;17.0;71.0
26641;DHT22;14269;47.358;0.724;2023-05-10T16:26:07;16.0;70.0
26641;DHT22;14269;47.358;0.724;2023-05-10T16:28:39;16.0;70.0
26641;DHT22;14269;47.358;0.724;2023-05-10T16:31:20;16.0;70.0
26641;DHT22;14269;47.358;0.724;2023-05-10T16:33:52;16.0;70.0
26641;DHT22;14269;47.358;0.724;2023-05-10T16:36:23;16.0;71.0
26641;DHT22;14269;47.358;0.724;2023-05-10T16:38:55;16.0;69.0
26641;DHT22;14269;47.358;0.724;2023-05-10T16:41:27;16.0;71.0
26641;DHT22;14269;47.358;0.724;2023-05-10T16:43:59;16.0;70.0
26641;DHT22;14269;47.358;0.724;2023-05-10T16:46:40;16.0;69.0
26641;DHT22;14269;47.358;0.724;2023-05-10T16:49:12;16.0;70.0
26641;DHT22;14269;47.358;0.724;2023-05-10T16:51:43;16.0;71.0